Time;durP1;ratioP1;P1;durP2;ratioP2;P2;SDS_P1;SDS_P2;PMS_P1;PMS_P2;Temp;Humidity;BMP_temperature;BMP_pressure;BME280_temperature;BME280_humidity;BME280_pressure;Samples;Min_cycle;Max_cycle;Signal;HPM_P1;HPM_P2
2023/03/11 00:00:43;;;;;;;;;;;0.80;99.90;;;0.26;100.00;96651.13;4994310;28;1970;-81
2023/03/11 00:03:14;;;;;;;;;;;0.80;99.90;;;0.14;100.00;96654.72;4982164;28;1652;-81
2023/03/11 00:05:43;;;;;;;;;;;0.70;99.90;;;0.18;100.00;96658.03;4990252;28;1299;-81
2023/03/11 00:08:19;;;;;;;;;;;0.70;99.90;;;0.22;100.00;96644.38;4989287;28;1362;-81
2023/03/11 00:10:52;;;;;;;;;;;0.70;99.90;;;0.18;100.00;96646.16;4987408;28;1691;-81
2023/03/11 00:13:18;;;;;;;;;;;0.70;99.90;;;0.25;100.00;96653.69;4992291;28;1470;-81
2023/03/11 00:15:47;;;;;;;;;;;0.70;99.90;;;0.11;100.00;96664.13;4977777;28;1352;-80
2023/03/11 00:18:16;;;;;;;;;;;0.70;99.90;;;0.17;100.00;96651.28;4989112;28;1404;-80
2023/03/11 00:20:44;;;;;;;;;;;0.60;99.90;;;0.12;100.00;96660.72;4984410;28;1978;-81
2023/03/11 00:23:15;;;;;;;;;;;0.60;99.90;;;0.08;100.00;96670.13;4987547;28;1224;-81
2023/03/11 00:25:45;;;;;;;;;;;0.50;99.90;;;0.13;100.00;96670.88;4987534;28;1365;-81
2023/03/11 00:28:14;;;;;;;;;;;0.50;99.90;;;0.01;100.00;96660.03;5004247;28;1315;-80
2023/03/11 00:30:44;;;;;;;;;;;0.50;99.90;;;-0.08;100.00;96669.50;4989238;28;1479;-81
2023/03/11 00:33:13;;;;;;;;;;;0.50;99.90;;;-0.19;100.00;96673.94;4989915;28;1571;-81
2023/03/11 00:35:41;;;;;;;;;;;0.50;99.90;;;-0.23;100.00;96682.47;4992601;28;1477;-81
2023/03/11 00:38:11;;;;;;;;;;;;;;;-0.16;100.00;96680.69;4986026;28;1016;-81
2023/03/11 00:40:39;;;;;;;;;;;0.60;99.90;;;-0.24;100.00;96688.47;4987853;28;2009;-81
2023/03/11 00:43:08;;;;;;;;;;;0.40;99.90;;;-0.17;100.00;96677.31;4991138;28;1439;-81
2023/03/11 00:45:36;;;;;;;;;;;0.40;99.90;;;-0.15;100.00;96670.47;4994179;28;1572;-81
2023/03/11 00:48:04;;;;;;;;;;;0.40;99.90;;;-0.24;100.00;96683.38;4991936;28;1388;-80
2023/03/11 00:50:34;;;;;;;;;;;0.40;99.90;;;-0.28;100.00;96680.00;4998179;28;1424;-81
2023/03/11 00:53:03;;;;;;;;;;;0.40;99.90;;;-0.09;100.00;96679.72;4993321;28;1395;-81
2023/03/11 00:55:32;;;;;;;;;;;0.40;99.90;;;-0.33;100.00;96686.88;4988484;28;1414;-81
2023/03/11 00:58:01;;;;;;;;;;;0.30;99.90;;;-0.39;100.00;96706.50;4992916;28;1615;-81
2023/03/11 01:00:29;;;;;;;;;;;0.30;99.90;;;-0.40;100.00;96708.22;4990409;28;2013;-81
2023/03/11 01:02:58;;;;;;;;;;;0.40;99.90;;;-0.29;100.00;96710.63;4993627;28;1352;-80
2023/03/11 01:05:28;;;;;;;;;;;0.30;99.90;;;-0.23;100.00;96682.47;4991699;28;1163;-80
2023/03/11 01:07:55;;;;;;;;;;;0.30;99.90;;;-0.30;100.00;96675.78;4988954;28;1428;-81
2023/03/11 01:10:23;;;;;;;;;;;0.30;99.90;;;-0.46;100.00;96690.44;4990476;28;1428;-81
2023/03/11 01:12:52;;;;;;;;;;;0.20;99.90;;;-0.43;100.00;96673.41;4990040;28;1292;-80
2023/03/11 01:15:23;;;;;;;;;;;0.20;99.90;;;-0.34;100.00;96661.38;4979226;28;1526;-80
2023/03/11 01:17:50;;;;;;;;;;;0.10;99.90;;;-0.42;100.00;96653.88;4989595;28;1395;-81
2023/03/11 01:20:18;;;;;;;;;;;0.10;99.90;;;-0.35;100.00;96664.81;4989034;28;1981;-80
2023/03/11 01:22:45;;;;;;;;;;;0.20;99.90;;;-0.32;100.00;96668.19;4972142;28;1455;-80
2023/03/11 01:25:14;;;;;;;;;;;0.10;99.90;;;-0.27;100.00;96684.25;4993629;28;1397;-81
2023/03/11 01:27:43;;;;;;;;;;;0.10;99.90;;;-0.23;100.00;96688.44;4993613;28;1426;-80
2023/03/11 01:30:14;;;;;;;;;;;0.10;99.90;;;-0.45;100.00;96694.72;5003110;28;1414;-80
2023/03/11 01:32:43;;;;;;;;;;;0.10;99.90;;;-0.31;100.00;96704.72;4987703;28;1168;-81
2023/03/11 01:35:12;;;;;;;;;;;0.10;99.90;;;-0.39;100.00;96696.31;4992696;28;1312;-81
2023/03/11 01:37:39;;;;;;;;;;;0.10;99.90;;;-0.46;100.00;96688.78;4989066;28;1670;-81
2023/03/11 01:40:10;;;;;;;;;;;0.00;99.90;;;-0.64;100.00;96712.78;4992981;28;1440;-80
2023/03/11 01:42:37;;;;;;;;;;;0.00;99.90;;;-0.76;100.00;96723.09;4988360;28;1354;-81
2023/03/11 01:45:32;;;;;;;;;;;0.10;99.90;;;-0.60;100.00;96708.47;4995613;28;1455;-81
2023/03/11 01:47:59;;;;;;;;;;;0.00;99.90;;;-0.67;100.00;96715.34;4992026;28;1616;-80
2023/03/11 01:50:32;;;;;;;;;;;0.00;99.90;;;-0.62;100.00;96738.22;4997384;28;1426;-81
2023/03/11 01:52:59;;;;;;;;;;;0.00;99.90;;;-0.56;100.00;96711.84;4974115;28;1614;-80
2023/03/11 01:55:27;;;;;;;;;;;0.00;99.90;;;-0.62;100.00;96728.03;4991344;28;1231;-81
2023/03/11 01:57:55;;;;;;;;;;;0.00;99.90;;;-0.63;100.00;96719.56;4992881;28;1377;-81
2023/03/11 02:00:22;;;;;;;;;;;0.00;99.90;;;-0.64;100.00;96715.34;4990005;28;1990;-80
2023/03/11 02:02:52;;;;;;;;;;;0.00;99.90;;;-0.58;100.00;96704.22;4993816;28;1432;-79
2023/03/11 02:05:21;;;;;;;;;;;-0.10;99.90;;;-0.70;100.00;96710.31;4997159;28;1551;-80
2023/03/11 02:07:51;;;;;;;;;;;-0.10;99.90;;;-0.65;100.00;96708.53;4982116;28;1432;-79
2023/03/11 02:10:19;;;;;;;;;;;0.00;99.90;;;-0.58;100.00;96709.31;4996886;28;1515;-79
2023/03/11 02:12:47;;;;;;;;;;;-0.10;99.90;;;-0.49;100.00;96710.91;4992939;28;1425;-79
2023/03/11 02:15:14;;;;;;;;;;;-0.10;99.90;;;-0.37;100.00;96694.59;4995887;28;1795;-80
2023/03/11 02:17:42;;;;;;;;;;;-0.10;99.90;;;-0.51;100.00;96687.97;4994918;28;1500;-79
2023/03/11 02:20:28;;;;;;;;;;;-0.10;99.90;;;-0.59;100.00;96702.53;5006594;28;1594;-80
2023/03/11 02:22:56;;;;;;;;;;;-0.10;99.90;;;-0.63;100.00;96703.44;4994137;28;1978;-79
2023/03/11 02:25:40;;;;;;;;;;;-0.10;99.90;;;-0.51;100.00;96690.50;4992604;28;1551;-80
2023/03/11 02:28:10;;;;;;;;;;;-0.10;99.90;;;-0.63;100.00;96698.34;4995815;28;1558;-80
2023/03/11 02:30:40;;;;;;;;;;;-0.10;99.90;;;-0.60;100.00;96690.63;4981657;28;1543;-80
2023/03/11 02:33:08;;;;;;;;;;;-0.20;99.90;;;-0.58;100.00;96693.19;4997174;28;1371;-80
2023/03/11 02:35:36;;;;;;;;;;;-0.20;99.90;;;-0.67;100.00;96696.69;4993451;28;1509;-80
2023/03/11 02:38:03;;;;;;;;;;;-0.20;99.90;;;-0.74;100.00;96713.75;5000560;28;1398;-80
2023/03/11 02:40:51;;;;;;;;;;;-0.20;99.90;;;-0.70;100.00;96717.94;4994028;28;1883;-80
2023/03/11 02:43:33;;;;;;;;;;;-0.20;99.90;;;-0.76;100.00;96715.47;4992017;28;1556;-79
2023/03/11 02:46:01;;;;;;;;;;;-0.10;99.90;;;-0.75;100.00;96713.75;4995776;28;1335;-80
2023/03/11 02:48:28;;;;;;;;;;;-0.10;99.90;;;-0.75;100.00;96717.16;5002770;28;1259;-79
2023/03/11 02:50:55;;;;;;;;;;;-0.20;99.90;;;-0.88;100.00;96726.63;5003111;28;1543;-79
2023/03/11 02:53:24;;;;;;;;;;;-0.20;99.90;;;-1.07;100.00;96720.91;5001763;28;1464;-79
2023/03/11 02:55:50;;;;;;;;;;;-0.30;99.90;;;-0.91;100.00;96710.56;5003093;28;1395;-79
2023/03/11 02:58:17;;;;;;;;;;;-0.30;99.90;;;-1.11;100.00;96715.88;5005140;28;951;-79
2023/03/11 03:00:45;;;;;;;;;;;-0.40;99.90;;;-1.09;100.00;96717.53;5000406;28;1992;-80
2023/03/11 03:03:12;;;;;;;;;;;-0.40;99.90;;;-1.13;100.00;96722.69;5004981;28;1445;-78
2023/03/11 03:05:39;;;;;;;;;;;-0.40;99.90;;;-1.15;100.00;96729.47;4998897;28;1461;-81
2023/03/11 03:08:06;;;;;;;;;;;-0.40;99.90;;;-1.17;100.00;96731.19;4991458;28;1450;-81
2023/03/11 03:10:33;;;;;;;;;;;-0.40;99.90;;;-1.14;100.00;96721.84;4986685;28;1363;-81
2023/03/11 03:13:00;;;;;;;;;;;-0.30;99.90;;;-1.18;100.00;96738.00;4990345;28;1426;-81
2023/03/11 03:15:27;;;;;;;;;;;-0.30;99.90;;;-1.16;100.00;96730.34;4973197;28;1058;-82
2023/03/11 03:17:55;;;;;;;;;;;-0.50;99.90;;;-1.05;100.00;96736.16;4990856;28;1383;-81
2023/03/11 03:20:22;;;;;;;;;;;-0.50;99.90;;;-1.19;100.00;96746.47;5007219;28;1269;-81
2023/03/11 03:22:50;;;;;;;;;;;-0.40;99.90;;;-1.10;100.00;96740.47;4991168;28;1898;-80
2023/03/11 03:25:17;;;;;;;;;;;-0.50;99.90;;;-1.06;100.00;96737.03;4988098;28;1067;-81
2023/03/11 03:27:46;;;;;;;;;;;-0.50;99.90;;;-1.04;100.00;96735.31;4998025;28;1470;-81
2023/03/11 03:30:14;;;;;;;;;;;-0.60;99.90;;;-1.13;100.00;96745.59;4999482;28;1416;-81
2023/03/11 03:32:40;;;;;;;;;;;-0.60;99.90;;;-0.99;100.00;96748.00;4984156;28;1478;-81
2023/03/11 03:35:09;;;;;;;;;;;-0.50;99.90;;;-1.08;100.00;96743.84;4993136;28;1574;-80
2023/03/11 03:37:38;;;;;;;;;;;-0.60;99.90;;;-1.20;100.00;96751.63;4980340;28;1057;-81
2023/03/11 03:40:12;;;;;;;;;;;-0.60;99.90;;;-1.18;100.00;96744.81;4993838;28;1405;-81
2023/03/11 03:42:39;;;;;;;;;;;-0.60;99.90;;;-1.21;100.00;96755.00;4992820;28;1931;-81
2023/03/11 03:45:07;;;;;;;;;;;-0.70;99.90;;;-1.26;100.00;96757.59;4994740;28;1625;-80
2023/03/11 03:47:35;;;;;;;;;;;-0.70;99.90;;;-1.26;100.00;96747.41;5008604;28;1631;-81
2023/03/11 03:50:04;;;;;;;;;;;-0.70;99.90;;;-1.18;100.00;96747.34;4992945;28;1426;-81
2023/03/11 03:52:31;;;;;;;;;;;-0.70;99.90;;;-1.17;100.00;96754.97;4984973;28;1006;-81
2023/03/11 03:54:58;;;;;;;;;;;-0.70;99.90;;;-1.32;100.00;96763.59;4987646;28;1441;-81
2023/03/11 03:57:27;;;;;;;;;;;-0.70;99.90;;;-1.14;100.00;96772.78;5001696;28;1541;-81
2023/03/11 03:59:54;;;;;;;;;;;-0.70;99.90;;;-1.09;100.00;96772.72;5012175;28;1537;-81
2023/03/11 04:02:21;;;;;;;;;;;-0.80;99.90;;;-1.26;100.00;96768.59;4985407;28;1883;-81
2023/03/11 04:04:49;;;;;;;;;;;-0.80;99.90;;;-1.13;100.00;96771.91;4997948;28;977;-81
2023/03/11 04:07:16;;;;;;;;;;;-0.70;99.90;;;-1.03;100.00;96759.91;4982095;28;1410;-81
2023/03/11 04:09:44;;;;;;;;;;;-0.70;99.90;;;-1.21;100.00;96767.72;4999020;28;1336;-81
2023/03/11 04:12:14;;;;;;;;;;;-0.70;99.90;;;-1.04;100.00;96778.63;4996127;28;1758;-80
2023/03/11 04:14:41;;;;;;;;;;;-0.70;99.90;;;-1.09;100.00;96778.66;4980771;28;1395;-81
2023/03/11 04:17:12;;;;;;;;;;;-0.80;99.90;;;-1.07;100.00;96776.09;4996257;28;1559;-80
2023/03/11 04:19:39;;;;;;;;;;;-0.80;99.90;;;-1.05;100.00;96776.91;5000531;28;1509;-81
2023/03/11 04:22:06;;;;;;;;;;;-0.80;99.90;;;-1.07;100.00;96778.66;4988149;28;1918;-81
2023/03/11 04:24:33;;;;;;;;;;;-0.80;99.90;;;-1.12;100.00;96785.47;4997520;28;1119;-81
2023/03/11 04:27:00;;;;;;;;;;;-0.80;99.90;;;-1.20;100.00;96777.91;5014200;28;1135;-81
2023/03/11 04:29:27;;;;;;;;;;;-0.80;99.90;;;-1.34;100.00;96775.50;4995031;28;1592;-82
2023/03/11 04:31:54;;;;;;;;;;;-0.80;99.90;;;-1.29;100.00;96783.09;4999524;28;1355;-81
2023/03/11 04:34:21;;;;;;;;;;;-0.70;99.90;;;-1.29;100.00;96783.09;4999469;28;1374;-81
2023/03/11 04:36:53;;;;;;;;;;;-0.70;99.90;;;-1.37;100.00;96795.03;4997949;28;1013;-81
2023/03/11 04:39:20;;;;;;;;;;;-0.70;99.90;;;-1.30;100.00;96797.53;4996605;28;1381;-81
2023/03/11 04:41:46;;;;;;;;;;;-0.70;99.90;;;-1.47;100.00;96800.19;4996095;28;1914;-81
2023/03/11 04:44:13;;;;;;;;;;;-0.80;99.90;;;-1.37;100.00;96797.56;4999383;28;1496;-80
2023/03/11 04:46:40;;;;;;;;;;;-0.80;99.90;;;-1.27;100.00;96800.03;5000408;28;1397;-81
2023/03/11 04:49:08;;;;;;;;;;;-0.80;99.90;;;-1.36;100.00;96812.84;4993667;28;1696;-81
2023/03/11 04:51:35;;;;;;;;;;;-0.90;99.90;;;-1.26;100.00;96816.16;4997869;28;1310;-80
2023/03/11 04:54:03;;;;;;;;;;;-0.80;99.90;;;-1.27;100.00;96812.75;5001455;28;1547;-81
2023/03/11 04:56:32;;;;;;;;;;;-0.90;99.90;;;-1.22;100.00;96809.34;4985632;28;1376;-81
2023/03/11 04:59:00;;;;;;;;;;;-0.90;99.90;;;-1.21;100.00;96813.56;4995375;28;1397;-80
2023/03/11 05:01:27;;;;;;;;;;;-0.90;99.90;;;-1.33;100.00;96804.34;5001909;28;1914;-81
2023/03/11 05:03:54;;;;;;;;;;;-1.00;99.90;;;-1.39;100.00;96805.25;5000710;28;1178;-81
2023/03/11 05:06:20;;;;;;;;;;;-1.00;99.90;;;-1.47;100.00;96802.72;5000234;28;1396;-80
2023/03/11 05:08:47;;;;;;;;;;;-1.10;99.90;;;-1.44;100.00;96801.84;5010610;28;1100;-79
2023/03/11 05:11:15;;;;;;;;;;;-1.10;99.90;;;-1.49;100.00;96801.91;5002308;28;1361;-80
2023/03/11 05:13:42;;;;;;;;;;;-1.10;99.90;;;-1.48;100.00;96792.59;5000193;28;1455;-81
2023/03/11 05:16:08;;;;;;;;;;;-1.00;99.90;;;-1.52;100.00;96794.28;4994705;28;1613;-80
2023/03/11 05:18:35;;;;;;;;;;;-1.00;99.90;;;-1.52;100.00;96809.56;4994419;28;1489;-81
2023/03/11 05:21:03;;;;;;;;;;;-1.00;99.90;;;-1.53;100.00;96807.03;4994431;28;1727;-80
2023/03/11 05:23:30;;;;;;;;;;;-1.10;99.90;;;-1.49;100.00;96812.06;4995750;28;1902;-81
2023/03/11 05:26:01;;;;;;;;;;;-1.00;99.90;;;-1.56;100.00;96817.22;4997062;28;1061;-81
2023/03/11 05:28:28;;;;;;;;;;;-1.00;99.90;;;-1.63;100.00;96821.53;4979969;28;1497;-81
2023/03/11 05:30:55;;;;;;;;;;;-1.00;99.90;;;-1.61;100.00;96822.34;5000047;28;1480;-81
2023/03/11 05:33:22;;;;;;;;;;;-0.90;99.90;;;-1.47;100.00;96820.53;4987442;28;1486;-81
2023/03/11 05:35:51;;;;;;;;;;;-0.90;99.90;;;-1.42;100.00;96817.13;4997789;28;1230;-81
2023/03/11 05:38:18;;;;;;;;;;;-0.90;99.90;;;-1.36;100.00;96829.81;4998918;28;1158;-81
2023/03/11 05:40:45;;;;;;;;;;;-0.90;99.90;;;-1.40;100.00;96826.44;4994522;28;1261;-81
2023/03/11 05:43:12;;;;;;;;;;;-1.00;99.90;;;-1.30;100.00;96815.34;4995346;28;1887;-81
2023/03/11 05:45:40;;;;;;;;;;;-0.90;99.90;;;-1.48;100.00;96825.66;4999098;28;1029;-80
2023/03/11 05:48:07;;;;;;;;;;;-0.90;99.90;;;-1.34;100.00;96815.38;4995613;28;1048;-80
2023/03/11 05:50:34;;;;;;;;;;;-0.90;99.90;;;-1.40;100.00;96816.25;4993999;28;1397;-81
2023/03/11 05:53:02;;;;;;;;;;;-0.90;99.90;;;-1.42;100.00;96812.88;4994387;28;1050;-81
2023/03/11 05:55:30;;;;;;;;;;;-0.90;99.90;;;-1.40;100.00;96817.97;4996102;28;1581;-81
2023/03/11 05:57:57;;;;;;;;;;;-0.90;99.90;;;-1.52;100.00;96826.53;5002124;28;1322;-80
2023/03/11 06:00:28;;;;;;;;;;;-0.90;99.90;;;-1.55;100.00;96837.59;4994329;28;1735;-81
2023/03/11 06:02:55;;;;;;;;;;;-0.90;99.90;;;-1.59;100.00;96835.06;4996036;28;1923;-81
2023/03/11 06:05:22;;;;;;;;;;;-0.90;99.90;;;-1.57;100.00;96836.75;5002392;28;1342;-81
2023/03/11 06:07:49;;;;;;;;;;;-0.90;99.90;;;-1.65;100.00;96843.59;4997271;28;1038;-81
2023/03/11 06:10:16;;;;;;;;;;;-1.00;99.90;;;-1.62;100.00;96838.50;4986645;28;1395;-81
2023/03/11 06:12:47;;;;;;;;;;;-1.00;99.90;;;-1.60;100.00;96841.00;4979322;28;1430;-81
2023/03/11 06:15:14;;;;;;;;;;;-0.90;99.90;;;-1.74;100.00;96836.84;4996428;28;1096;-81
2023/03/11 06:17:42;;;;;;;;;;;-0.90;99.90;;;-1.63;100.00;96854.59;4994751;28;1363;-81
2023/03/11 06:20:10;;;;;;;;;;;-0.90;99.90;;;-1.71;100.00;96854.66;4998396;28;1237;-80
2023/03/11 06:22:37;;;;;;;;;;;-0.90;99.90;;;-1.50;100.00;96853.66;4985477;28;1972;-80
2023/03/11 06:25:06;;;;;;;;;;;-0.90;99.90;;;-1.73;100.00;96863.16;4999615;28;1059;-81
2023/03/11 06:27:34;;;;;;;;;;;-0.80;99.90;;;-1.75;100.00;96854.69;4996915;28;1522;-80
2023/03/11 06:30:01;;;;;;;;;;;-0.80;99.90;;;-1.65;100.00;96858.00;4996192;28;1233;-81
2023/03/11 06:32:28;;;;;;;;;;;-0.80;99.90;;;-1.50;100.00;96876.56;4998307;28;1339;-81
2023/03/11 06:34:55;;;;;;;;;;;-0.80;99.90;;;-1.58;100.00;96873.22;4993717;28;1047;-81
2023/03/11 06:37:24;;;;;;;;;;;-0.80;99.90;;;-1.63;100.00;96881.75;4995800;28;1411;-81
2023/03/11 06:39:52;;;;;;;;;;;-0.90;99.90;;;-1.44;100.00;96874.84;4996881;28;1256;-81
2023/03/11 06:42:20;;;;;;;;;;;-0.80;99.90;;;-1.35;100.00;96874.78;4983361;28;1993;-80
2023/03/11 06:44:47;;;;;;;;;;;-0.80;99.90;;;-1.39;100.00;96876.50;4997654;28;1337;-81
2023/03/11 06:47:15;;;;;;;;;;;-0.80;99.90;;;-1.30;100.00;96884.09;4983900;28;990;-80
2023/03/11 06:49:45;;;;;;;;;;;-0.70;99.90;;;-1.33;100.00;96886.63;4995056;28;1450;-80
2023/03/11 06:52:11;;;;;;;;;;;-0.70;99.90;;;-1.33;100.00;96875.63;5003293;28;1091;-80
2023/03/11 06:54:39;;;;;;;;;;;-0.70;99.90;;;-1.31;100.00;96887.47;4998871;28;1410;-80
2023/03/11 06:57:09;;;;;;;;;;;-0.70;99.90;;;-1.13;100.00;96894.13;5004047;28;1469;-81
2023/03/11 06:59:36;;;;;;;;;;;-0.60;99.90;;;-0.94;100.00;96897.38;5003084;28;1566;-81
2023/03/11 07:02:05;;;;;;;;;;;-0.60;99.90;;;-1.09;100.00;96897.53;4996867;28;1996;-81
2023/03/11 07:04:33;;;;;;;;;;;-0.50;99.90;;;-1.14;100.00;96897.56;4996414;28;1480;-81
2023/03/11 07:07:00;;;;;;;;;;;-0.50;99.90;;;-1.08;100.00;96896.66;5003945;28;1092;-81
2023/03/11 07:09:28;;;;;;;;;;;-0.40;99.90;;;-1.06;100.00;96895.78;4996083;28;1229;-81
2023/03/11 07:11:56;;;;;;;;;;;-0.30;99.90;;;-1.05;100.00;96901.72;4996222;28;1381;-81
2023/03/11 07:14:23;;;;;;;;;;;-0.30;99.90;;;-0.95;100.00;96911.00;4994768;28;1033;-81
2023/03/11 07:16:53;;;;;;;;;;;-0.30;99.90;;;-0.81;100.00;96907.50;4993435;28;1402;-80
2023/03/11 07:19:20;;;;;;;;;;;-0.20;99.90;;;-0.83;100.00;96920.22;5009287;28;1269;-80
2023/03/11 07:21:47;;;;;;;;;;;-0.10;99.90;;;-0.71;100.00;96917.59;4998545;28;1978;-81
2023/03/11 07:24:14;;;;;;;;;;;-0.10;99.90;;;-0.76;100.00;96926.13;4993336;28;1520;-81
2023/03/11 07:26:42;;;;;;;;;;;-0.10;99.90;;;-0.59;100.00;96926.84;4989359;28;1458;-80
2023/03/11 07:29:10;;;;;;;;;;;0.00;99.90;;;-0.58;100.00;96925.13;5004246;28;1413;-80
2023/03/11 07:31:40;;;;;;;;;;;0.10;99.90;;;-0.61;100.00;96923.44;5003656;28;1405;-81
2023/03/11 07:34:12;;;;;;;;;;;0.10;99.90;;;-0.53;100.00;96926.75;5001369;28;1320;-80
2023/03/11 07:36:42;;;;;;;;;;;0.20;99.90;;;-0.46;100.00;96935.19;4991818;28;1383;-81
2023/03/11 07:39:15;;;;;;;;;;;0.20;99.90;;;-0.37;100.00;96936.81;5003444;28;1285;-81
2023/03/11 07:41:44;;;;;;;;;;;0.30;99.90;;;-0.27;100.00;96944.38;5000850;28;1393;-81
2023/03/11 07:44:12;;;;;;;;;;;0.50;99.90;;;-0.30;100.00;96952.03;5001288;28;1355;-81
2023/03/11 07:46:45;;;;;;;;;;;0.50;99.90;;;-0.11;100.00;96949.31;5000972;28;934;-81
2023/03/11 07:49:13;;;;;;;;;;;0.60;99.90;;;0.02;100.00;96955.97;5002670;28;1352;-81
2023/03/11 07:51:42;;;;;;;;;;;1.00;99.90;;;-0.08;100.00;96957.78;4996636;28;1499;-82
2023/03/11 07:54:10;;;;;;;;;;;1.30;99.90;;;0.61;100.00;96956.94;5003850;28;1440;-81
2023/03/11 07:56:38;;;;;;;;;;;1.80;99.90;;;0.92;100.00;96946.31;5006200;28;1316;-82
2023/03/11 07:59:05;;;;;;;;;;;2.10;99.90;;;1.56;100.00;96941.91;5001329;28;1321;-81
2023/03/11 08:01:35;;;;;;;;;;;2.50;99.90;;;1.86;100.00;96947.34;4999801;28;1480;-79
2023/03/11 08:04:04;;;;;;;;;;;2.60;99.90;;;2.24;100.00;96946.63;5001808;28;2037;-79
2023/03/11 08:06:34;;;;;;;;;;;2.80;99.90;;;2.64;100.00;96942.41;4999813;28;1425;-80
2023/03/11 08:09:04;;;;;;;;;;;3.00;99.90;;;3.34;100.00;96947.66;4997681;28;1663;-80
2023/03/11 08:11:31;;;;;;;;;;;3.50;99.90;;;3.81;100.00;96949.91;4984002;28;1374;-79
2023/03/11 08:13:59;;;;;;;;;;;4.10;99.90;;;3.91;100.00;96941.09;4994407;28;1427;-79
2023/03/11 08:16:26;;;;;;;;;;;4.50;99.90;;;3.96;100.00;96942.66;5000013;28;1574;-79
2023/03/11 08:18:53;;;;;;;;;;;4.70;99.90;;;3.85;100.00;96948.97;4994398;28;1708;-79
2023/03/11 08:21:23;;;;;;;;;;;4.50;99.90;;;4.42;100.00;96939.72;5001154;28;1519;-79
2023/03/11 08:23:51;;;;;;;;;;;4.70;99.90;;;4.00;100.00;96948.56;5001450;28;1899;-79
2023/03/11 08:26:20;;;;;;;;;;;5.00;99.90;;;3.78;100.00;96958.53;4987030;28;1415;-79
2023/03/11 08:28:52;;;;;;;;;;;4.90;99.90;;;4.63;100.00;96951.09;4996644;28;1418;-80
2023/03/11 08:31:25;;;;;;;;;;;5.20;99.90;;;4.64;100.00;96952.81;5001550;28;1508;-80
2023/03/11 08:33:57;;;;;;;;;;;5.50;99.90;;;5.23;100.00;96955.31;4997709;28;1440;-80
2023/03/11 08:36:24;;;;;;;;;;;5.90;99.90;;;5.15;100.00;96952.97;4998847;28;1474;-80
2023/03/11 08:38:51;;;;;;;;;;;6.30;99.90;;;5.66;100.00;96959.09;4997598;28;1680;-80
2023/03/11 08:41:19;;;;;;;;;;;6.40;99.90;;;4.88;100.00;96964.94;4994387;28;1523;-80
2023/03/11 08:43:46;;;;;;;;;;;6.40;99.90;;;5.38;100.00;96959.13;4999684;28;2039;-80
2023/03/11 08:46:25;;;;;;;;;;;6.20;99.90;;;4.50;100.00;96960.91;4995905;28;1599;-80
2023/03/11 08:48:53;;;;;;;;;;;6.40;99.90;;;5.17;100.00;96960.63;4995489;28;1690;-80
2023/03/11 08:53:52;;;;;;;;;;;6.10;99.90;;;5.12;100.00;96965.91;5005472;28;1840;-67
2023/03/11 08:56:19;;;;;;;;;;;6.20;99.90;;;5.75;100.00;96970.81;5022170;28;1436;-67
2023/03/11 08:58:47;;;;;;;;;;;6.80;99.90;;;5.65;100.00;96965.09;5004671;28;1492;-67
2023/03/11 09:01:14;;;;;;;;;;;7.00;99.90;;;5.47;100.00;96968.28;5009300;28;1512;-67
2023/03/11 09:03:41;;;;;;;;;;;6.60;99.90;;;5.56;100.00;96973.13;5007708;28;1906;-68
2023/03/11 09:06:12;;;;;;;;;;;6.80;99.90;;;4.76;100.00;96983.28;4985881;28;1688;-68
2023/03/11 09:08:40;;;;;;;;;;;6.50;99.90;;;5.11;100.00;96981.41;5004010;28;1674;-69
2023/03/11 09:11:08;;;;;;;;;;;6.60;99.90;;;4.92;100.00;96978.53;5008076;28;1425;-68
2023/03/11 09:13:35;;;;;;;;;;;6.50;99.90;;;5.89;100.00;96972.94;5008430;28;1417;-68
2023/03/11 09:16:04;;;;;;;;;;;6.90;99.90;;;6.25;100.00;96961.38;5004504;28;1593;-67
2023/03/11 09:18:31;;;;;;;;;;;7.50;99.90;;;6.25;100.00;96965.72;5004925;28;1432;-69
2023/03/11 09:20:59;;;;;;;;;;;8.20;98.60;;;4.65;100.00;96969.91;5018985;28;1550;-68
2023/03/11 09:23:26;;;;;;;;;;;6.90;97.50;;;5.01;100.00;96963.66;5008354;28;2011;-68
2023/03/11 09:25:53;;;;;;;;;;;6.60;98.20;;;4.94;100.00;96959.59;5007484;28;1455;-68
2023/03/11 09:28:20;;;;;;;;;;;6.60;98.30;;;5.51;100.00;96964.72;5008502;28;1394;-68
2023/03/11 09:30:47;;;;;;;;;;;6.90;98.30;;;6.37;100.00;96954.94;5007254;28;1411;-68
2023/03/11 09:33:13;;;;;;;;;;;7.80;97.70;;;7.30;100.00;96955.75;5006208;28;1401;-67
2023/03/11 09:35:40;;;;;;;;;;;8.40;97.40;;;7.58;100.00;96949.50;5001157;28;1565;-68
2023/03/11 09:38:07;;;;;;;;;;;8.60;97.40;;;6.91;100.00;96947.78;5007982;28;1427;-67
2023/03/11 09:40:49;;;;;;;;;;;8.20;96.80;;;5.52;100.00;96962.09;5005225;28;1417;-68
2023/03/11 09:43:38;;;;;;;;;;;7.60;97.80;;;4.77;100.00;96970.41;5006914;28;1934;-67
2023/03/11 09:46:42;;;;;;;;;;;7.00;96.90;;;4.06;100.00;96976.66;5008563;28;1416;-68
2023/03/11 09:49:30;;;;;;;;;;;6.10;96.80;;;3.89;100.00;96983.94;5019445;28;1380;-67
2023/03/11 09:52:07;;;;;;;;;;;5.20;98.20;;;3.62;100.00;96986.31;5019739;28;1408;-67
2023/03/11 09:54:50;;;;;;;;;;;4.90;98.00;;;3.18;100.00;96982.25;5006759;28;1412;-67
2023/03/11 09:57:27;;;;;;;;;;;4.90;99.00;;;3.29;100.00;96993.94;5006352;28;1576;-68
2023/03/11 09:59:54;;;;;;;;;;;4.60;98.80;;;3.17;100.00;96989.09;5022371;28;1439;-68
2023/03/11 10:02:26;;;;;;;;;;;4.30;98.50;;;3.46;100.00;96990.97;5007954;28;1985;-67
2023/03/11 10:05:11;;;;;;;;;;;4.30;99.00;;;3.02;100.00;96984.31;5005515;28;1449;-67
2023/03/11 10:07:44;;;;;;;;;;;4.20;98.70;;;2.89;100.00;96987.13;5002513;28;1454;-67
2023/03/11 10:10:15;;;;;;;;;;;4.10;99.90;;;2.92;100.00;96992.19;5002335;28;1743;-68
2023/03/11 10:13:24;;;;;;;;;;;4.00;99.40;;;3.32;100.00;96998.16;5006625;28;1587;-68
2023/03/11 10:16:14;;;;;;;;;;;4.20;99.90;;;3.47;100.00;96996.97;5004575;28;1481;-68
2023/03/11 10:19:07;;;;;;;;;;;4.50;99.90;;;3.27;100.00;96994.84;5002988;28;1449;-67
2023/03/11 10:22:10;;;;;;;;;;;4.40;98.20;;;2.93;100.00;96999.00;4998969;28;1548;-68
2023/03/11 10:24:47;;;;;;;;;;;4.50;97.80;;;3.25;100.00;96996.63;5003054;28;1989;-67
2023/03/11 10:27:21;;;;;;;;;;;4.50;98.20;;;3.64;100.00;97002.53;5020944;28;1388;-68
2023/03/11 10:30:18;;;;;;;;;;;4.60;97.40;;;3.42;100.00;96983.38;5014255;28;1841;-67
2023/03/11 10:32:57;;;;;;;;;;;4.70;97.20;;;3.69;100.00;96977.56;5013743;28;1968;-68
2023/03/11 10:35:35;;;;;;;;;;;4.90;97.70;;;3.51;100.00;96985.72;5004856;28;1549;-68
2023/03/11 10:38:06;;;;;;;;;;;4.80;96.20;;;3.48;100.00;96991.78;5001342;28;1569;-68
2023/03/11 10:40:35;;;;;;;;;;;4.60;97.30;;;3.35;100.00;96992.94;5005459;28;1610;-68
2023/03/11 10:43:10;;;;;;;;;;;4.60;98.00;;;3.44;100.00;96995.28;5006521;28;1910;-68
2023/03/11 10:45:42;;;;;;;;;;;4.80;97.10;;;4.02;100.00;96993.03;5022595;28;1149;-68
2023/03/11 10:48:11;;;;;;;;;;;4.90;98.10;;;3.89;100.00;96997.63;5005532;28;1384;-67
2023/03/11 10:51:00;;;;;;;;;;;5.10;97.80;;;3.55;100.00;96997.59;5004027;28;1403;-68
2023/03/11 10:53:27;;;;;;;;;;;5.10;96.50;;;3.78;100.00;96992.75;5004138;28;1549;-68
2023/03/11 10:55:56;;;;;;;;;;;5.10;96.60;;;3.88;100.00;96988.25;5007044;28;1360;-68
2023/03/11 10:58:26;;;;;;;;;;;5.20;96.10;;;4.11;100.00;96989.38;5005991;28;1540;-67
2023/03/11 11:01:11;;;;;;;;;;;5.20;97.40;;;3.88;100.00;96990.81;5003872;28;1567;-67
2023/03/11 11:03:41;;;;;;;;;;;5.00;97.00;;;4.02;100.00;96987.06;4999112;28;2112;-68
2023/03/11 11:06:24;;;;;;;;;;;5.00;97.80;;;3.85;100.00;96979.75;4997209;28;1506;-67
2023/03/11 11:09:31;;;;;;;;;;;4.90;98.40;;;4.08;100.00;96998.00;5003699;28;1397;-68
2023/03/11 11:12:04;;;;;;;;;;;5.00;97.60;;;4.22;100.00;96991.66;4984322;28;1658;-67
2023/03/11 11:14:51;;;;;;;;;;;5.30;97.60;;;3.81;100.00;96998.69;4981263;28;1467;-66
2023/03/11 11:17:32;;;;;;;;;;;5.30;96.00;;;4.09;100.00;96991.97;5005306;28;1412;-68
2023/03/11 11:20:11;;;;;;;;;;;5.30;97.10;;;4.47;100.00;96982.41;5018811;28;1527;-68
2023/03/11 11:22:47;;;;;;;;;;;5.40;97.30;;;4.76;100.00;96983.28;5005539;28;2240;-68
2023/03/11 11:25:37;;;;;;;;;;;5.70;97.10;;;5.23;100.00;96981.88;5017536;28;1558;-67
2023/03/11 11:28:19;;;;;;;;;;;6.00;95.60;;;4.87;100.00;96980.41;5016040;28;1582;-68
2023/03/11 11:30:55;;;;;;;;;;;6.30;95.20;;;4.84;100.00;96981.34;5004639;28;1492;-68
2023/03/11 11:33:31;;;;;;;;;;;6.30;96.00;;;4.30;100.00;96976.88;5020196;28;1415;-68
2023/03/11 11:36:02;;;;;;;;;;;6.00;95.70;;;4.40;100.00;96971.44;5001524;28;1557;-68
2023/03/11 11:38:30;;;;;;;;;;;6.00;96.10;;;4.35;100.00;96972.44;5018388;28;1493;-67
2023/03/11 11:41:00;;;;;;;;;;;5.90;96.60;;;4.19;100.00;96970.28;5013763;28;1680;-67